Time;durP1;ratioP1;P1;durP2;ratioP2;P2;SDS_P1;SDS_P2;PMS_P1;PMS_P2;Temp;Humidity;BMP_temperature;BMP_pressure;BME280_temperature;BME280_humidity;BME280_pressure;Samples;Min_cycle;Max_cycle;Signal;HPM_P1;HPM_P2
2023/05/30 00:00:53;;;;;;;7.90;7.20;;;26.90;55.30;;;;;;5078810;28;20523;-72
2023/05/30 00:03:21;;;;;;;7.57;6.83;;;26.90;55.40;;;;;;5052817;28;21052;-72
2023/05/30 00:05:49;;;;;;;7.10;6.50;;;26.80;55.40;;;;;;5066467;28;20447;-72
2023/05/30 00:08:19;;;;;;;6.83;6.23;;;26.90;55.40;;;;;;5071267;28;20458;-72
2023/05/30 00:10:48;;;;;;;6.90;6.40;;;26.90;55.40;;;;;;5056139;28;20529;-72
2023/05/30 00:13:16;;;;;;;7.70;7.10;;;26.80;55.40;;;;;;5052484;28;20494;-72
2023/05/30 00:15:44;;;;;;;7.40;6.80;;;26.80;55.40;;;;;;5052021;28;20434;-72
2023/05/30 00:18:13;;;;;;;7.60;6.97;;;26.80;55.40;;;;;;5069117;28;20445;-72
2023/05/30 00:20:44;;;;;;;6.63;6.20;;;26.80;55.40;;;;;;5071786;28;20465;-71
2023/05/30 00:23:12;;;;;;;7.67;7.07;;;26.80;55.40;;;;;;5072457;28;20884;-72
2023/05/30 00:25:42;;;;;;;7.47;6.70;;;26.80;55.50;;;;;;5078500;28;20474;-72
2023/05/30 00:28:10;;;;;;;8.67;6.70;;;26.80;55.40;;;;;;5091286;28;20513;-72
2023/05/30 00:30:38;;;;;;;6.37;5.87;;;26.80;55.40;;;;;;5075509;28;20507;-72
2023/05/30 00:33:07;;;;;;;7.00;6.40;;;26.80;55.50;;;;;;5074669;28;20465;-72
2023/05/30 00:35:35;;;;;;;6.90;6.30;;;26.80;55.50;;;;;;5089045;28;20936;-72
2023/05/30 00:38:03;;;;;;;6.67;6.17;;;26.70;55.50;;;;;;5071230;28;20438;-72
2023/05/30 00:40:31;;;;;;;6.97;6.37;;;26.80;55.50;;;;;;5079777;28;20474;-71
2023/05/30 00:43:01;;;;;;;6.33;5.83;;;26.70;55.50;;;;;;5076612;28;20451;-72
2023/05/30 00:45:29;;;;;;;6.07;5.67;;;26.70;55.50;;;;;;5063480;28;20461;-71
2023/05/30 00:47:58;;;;;;;6.67;6.17;;;26.70;55.50;;;;;;5034132;28;20450;-71
2023/05/30 00:50:28;;;;;;;6.70;6.20;;;26.70;55.50;;;;;;5052256;28;20440;-71
2023/05/30 00:52:57;;;;;;;6.30;5.80;;;26.70;55.50;;;;;;5060651;28;20436;-71
2023/05/30 00:55:27;;;;;;;6.73;6.23;;;26.70;55.60;;;;;;5071741;28;20449;-71
2023/05/30 00:57:56;;;;;;;6.03;5.53;;;26.70;55.60;;;;;;5054345;28;20856;-71
2023/05/30 01:00:26;;;;;;;5.80;5.33;;;26.70;55.60;;;;;;5052393;28;20473;-71
2023/05/30 01:02:59;;;;;;;6.63;6.03;;;26.70;55.60;;;;;;5069415;28;20488;-71
2023/05/30 01:05:31;;;;;;;6.27;5.70;;;26.70;55.60;;;;;;5070557;28;20949;-71
2023/05/30 01:07:59;;;;;;;6.50;6.00;;;26.70;55.60;;;;;;5070140;28;20458;-72
2023/05/30 01:10:31;;;;;;;5.63;5.17;;;26.70;55.60;;;;;;5052098;28;20519;-71
2023/05/30 01:13:13;;;;;;;5.60;5.20;;;26.70;55.60;;;;;;5070764;28;20471;-72
2023/05/30 01:15:49;;;;;;;5.97;5.47;;;26.60;55.70;;;;;;5042489;28;20467;-71
2023/05/30 01:18:33;;;;;;;5.60;5.20;;;26.60;55.60;;;;;;5061160;28;20444;-71
2023/05/30 01:21:07;;;;;;;5.13;4.83;;;26.60;55.70;;;;;;5071399;28;20577;-71
2023/05/30 01:23:46;;;;;;;5.67;5.20;;;26.60;55.70;;;;;;5053887;28;20457;-72
2023/05/30 01:26:31;;;;;;;5.57;5.17;;;26.60;55.70;;;;;;5070496;28;20462;-72
2023/05/30 01:29:02;;;;;;;5.60;5.03;;;26.60;55.70;;;;;;5049103;28;20819;-71
2023/05/30 01:31:33;;;;;;;5.47;5.07;;;26.60;55.70;;;;;;5066320;28;20468;-71
2023/05/30 01:34:02;;;;;;;6.57;6.07;;;26.60;55.70;;;;;;5049237;28;20490;-72
2023/05/30 01:36:30;;;;;;;5.43;4.97;;;26.60;55.70;;;;;;5052906;28;20465;-72
2023/05/30 01:38:59;;;;;;;5.77;5.37;;;26.60;55.70;;;;;;5052283;28;20461;-71
2023/05/30 01:41:36;;;;;;;7.50;6.17;;;26.60;55.80;;;;;;5070814;28;20465;-71
2023/05/30 01:44:12;;;;;;;5.17;4.77;;;26.60;55.80;;;;;;5052305;28;20475;-72
2023/05/30 01:46:45;;;;;;;5.53;5.03;;;26.60;55.70;;;;;;5053648;28;20460;-71
2023/05/30 01:49:19;;;;;;;6.10;5.60;;;26.60;55.80;;;;;;5049470;28;20472;-72
2023/05/30 01:51:53;;;;;;;6.10;5.60;;;26.60;55.80;;;;;;5070869;28;20494;-72
2023/05/30 01:54:22;;;;;;;5.53;5.13;;;26.60;55.90;;;;;;5053207;28;20540;-72
2023/05/30 01:56:55;;;;;;;5.10;4.70;;;26.60;55.80;;;;;;5052717;28;20461;-72
2023/05/30 01:59:26;;;;;;;5.27;4.93;;;26.60;55.90;;;;;;5070250;28;20438;-71
2023/05/30 02:01:55;;;;;;;5.37;4.93;;;26.60;55.90;;;;;;5051995;28;20479;-72
2023/05/30 02:04:25;;;;;;;5.43;4.93;;;26.50;55.90;;;;;;5063746;28;20774;-73
2023/05/30 02:06:53;;;;;;;5.60;5.10;;;26.50;55.90;;;;;;5071417;28;20458;-71
2023/05/30 02:09:22;;;;;;;5.00;4.60;;;26.50;55.90;;;;;;5062181;28;20505;-72
2023/05/30 02:11:50;;;;;;;5.10;4.70;;;26.50;55.90;;;;;;5082744;28;20923;-72
2023/05/30 02:14:19;;;;;;;5.00;4.60;;;26.50;55.90;;;;;;5051960;28;20453;-71
2023/05/30 02:16:49;;;;;;;4.80;4.40;;;26.50;55.90;;;;;;5064880;28;20461;-72
2023/05/30 02:19:18;;;;;;;5.27;4.87;;;26.50;56.00;;;;;;5052173;28;20504;-71
2023/05/30 02:21:46;;;;;;;5.00;4.60;;;26.50;55.90;;;;;;5053343;28;20934;-71
2023/05/30 02:24:17;;;;;;;5.03;4.63;;;26.50;56.00;;;;;;5070750;28;20457;-71
2023/05/30 02:26:45;;;;;;;4.80;4.40;;;26.50;56.00;;;;;;5070172;28;20496;-71
2023/05/30 02:29:13;;;;;;;4.67;4.37;;;26.50;55.90;;;;;;5069891;28;20450;-71
2023/05/30 02:31:41;;;;;;;4.40;4.10;;;26.50;56.00;;;;;;5069635;28;20463;-71
2023/05/30 02:34:11;;;;;;;4.73;4.20;;;26.50;56.00;;;;;;5068345;28;20461;-72
2023/05/30 02:36:39;;;;;;;5.60;5.10;;;26.50;56.00;;;;;;5070907;28;20484;-71
2023/05/30 02:39:09;;;;;;;4.27;3.87;;;26.50;56.00;;;;;;5052724;28;20542;-72
2023/05/30 02:41:41;;;;;;;4.70;4.30;;;26.50;56.10;;;;;;5070360;28;20469;-72
2023/05/30 02:44:09;;;;;;;5.20;4.80;;;26.50;56.00;;;;;;5051488;28;21357;-71
2023/05/30 02:46:38;;;;;;;5.30;4.90;;;26.50;56.10;;;;;;5069857;28;20955;-71
2023/05/30 02:49:12;;;;;;;5.17;4.77;;;26.40;56.10;;;;;;5051325;28;20817;-72
2023/05/30 02:51:42;;;;;;;4.93;4.53;;;26.40;56.10;;;;;;5052799;28;20462;-72
2023/05/30 02:54:17;;;;;;;5.27;4.77;;;26.40;56.10;;;;;;5056235;28;20468;-71
2023/05/30 02:57:11;;;;;;;5.33;4.93;;;26.40;56.10;;;;;;5057739;28;20595;-71
2023/05/30 02:59:57;;;;;;;5.87;5.37;;;26.40;56.20;;;;;;5055580;28;20476;-72
2023/05/30 03:02:25;;;;;;;4.87;4.47;;;26.40;56.20;;;;;;5072967;28;20477;-72
2023/05/30 03:04:55;;;;;;;5.37;4.87;;;26.40;56.20;;;;;;5055564;28;21062;-71
2023/05/30 03:07:25;;;;;;;4.73;4.33;;;26.40;56.30;;;;;;5074192;28;20783;-71
2023/05/30 03:09:53;;;;;;;5.17;4.77;;;26.40;56.20;;;;;;5046682;28;20862;-71
2023/05/30 03:12:22;;;;;;;5.10;4.70;;;26.40;56.30;;;;;;5055961;28;20449;-72
2023/05/30 03:14:51;;;;;;;5.40;5.00;;;26.40;56.20;;;;;;5055263;28;20463;-71
2023/05/30 03:17:19;;;;;;;4.60;4.20;;;26.40;56.30;;;;;;5055870;28;20817;-72
2023/05/30 03:19:48;;;;;;;4.50;4.10;;;26.40;56.30;;;;;;5055344;28;21437;-72
2023/05/30 03:22:19;;;;;;;4.97;4.57;;;26.40;56.30;;;;;;5056045;28;20482;-72
2023/05/30 03:24:48;;;;;;;5.00;4.67;;;26.30;56.30;;;;;;5055689;28;20457;-72
2023/05/30 03:27:17;;;;;;;4.90;4.57;;;26.30;56.30;;;;;;5055733;28;20495;-72
2023/05/30 03:29:47;;;;;;;4.77;4.40;;;26.30;56.30;;;;;;5053922;28;20957;-72
2023/05/30 03:32:15;;;;;;;4.30;4.00;;;26.30;56.30;;;;;;5068184;28;21024;-72
2023/05/30 03:34:45;;;;;;;4.47;4.17;;;26.30;56.30;;;;;;5049547;28;20466;-72
2023/05/30 03:37:15;;;;;;;4.67;4.30;;;26.30;56.30;;;;;;5055605;28;20459;-73
2023/05/30 03:39:45;;;;;;;5.03;4.63;;;26.30;56.30;;;;;;5055018;28;20797;-72
2023/05/30 03:42:13;;;;;;;4.53;4.23;;;26.30;56.30;;;;;;5053981;28;20478;-72
2023/05/30 03:44:41;;;;;;;4.83;4.43;;;26.30;56.30;;;;;;5050712;28;20450;-72
2023/05/30 03:47:09;;;;;;;4.10;3.80;;;26.30;56.30;;;;;;5071616;28;20933;-72
2023/05/30 03:49:39;;;;;;;4.13;3.83;;;26.30;56.30;;;;;;5037791;28;20451;-72
2023/05/30 03:52:08;;;;;;;4.20;3.90;;;26.30;56.30;;;;;;5070689;28;20472;-72
2023/05/30 03:54:36;;;;;;;4.47;4.07;;;26.30;56.40;;;;;;5073820;28;20465;-72
2023/05/30 03:57:07;;;;;;;6.40;4.87;;;26.30;56.30;;;;;;5076254;28;20453;-72
2023/05/30 03:59:37;;;;;;;5.40;4.20;;;26.30;56.30;;;;;;5071582;28;20464;-72
2023/05/30 04:02:05;;;;;;;4.30;4.00;;;26.30;56.30;;;;;;5069370;28;20472;-72
2023/05/30 04:04:34;;;;;;;5.10;4.70;;;26.30;56.30;;;;;;5066659;28;20461;-72
2023/05/30 04:07:02;;;;;;;4.27;3.90;;;26.30;56.30;;;;;;5051680;28;20499;-72
2023/05/30 04:09:30;;;;;;;4.00;3.70;;;26.30;56.40;;;;;;5065070;28;20852;-73
2023/05/30 04:11:58;;;;;;;4.13;3.83;;;26.30;56.30;;;;;;5039373;28;20461;-71
2023/05/30 04:14:28;;;;;;;4.10;3.80;;;26.30;56.30;;;;;;5046186;28;20470;-71
2023/05/30 04:16:57;;;;;;;4.27;3.97;;;26.30;56.30;;;;;;5040543;28;21157;-71
2023/05/30 04:19:25;;;;;;;4.93;4.53;;;26.30;56.30;;;;;;5062341;28;20454;-71
2023/05/30 04:21:53;;;;;;;4.00;3.70;;;26.30;56.30;;;;;;5043199;28;20477;-71
2023/05/30 04:24:22;;;;;;;5.63;4.40;;;26.30;56.30;;;;;;5062254;28;20476;-71
2023/05/30 04:26:51;;;;;;;3.40;3.17;;;26.30;56.20;;;;;;5044773;28;20989;-71
2023/05/30 04:29:22;;;;;;;4.40;4.10;;;26.30;56.20;;;;;;5047270;28;20474;-71
2023/05/30 04:31:51;;;;;;;4.47;4.07;;;26.30;56.20;;;;;;5043076;28;20465;-71
2023/05/30 04:34:22;;;;;;;4.43;4.03;;;26.30;56.20;;;;;;5048688;28;20830;-71
2023/05/30 04:36:53;;;;;;;3.93;3.57;;;26.30;56.20;;;;;;5055682;28;20816;-71
2023/05/30 04:39:22;;;;;;;4.03;3.73;;;26.30;56.20;;;;;;5055933;28;20519;-71
2023/05/30 04:41:54;;;;;;;4.27;3.90;;;26.30;56.20;;;;;;5063570;28;20987;-71
2023/05/30 04:44:23;;;;;;;4.00;3.70;;;26.30;56.20;;;;;;5047279;28;20817;-71
2023/05/30 04:46:53;;;;;;;4.23;3.93;;;26.30;56.20;;;;;;5049094;28;20516;-71
2023/05/30 04:49:22;;;;;;;3.87;3.57;;;26.30;56.20;;;;;;5031645;28;20588;-71
2023/05/30 04:51:51;;;;;;;3.67;3.37;;;26.30;56.20;;;;;;5061881;28;20470;-71
2023/05/30 04:54:20;;;;;;;3.87;3.47;;;26.30;56.20;;;;;;5068674;28;20456;-71
2023/05/30 04:56:48;;;;;;;4.13;3.80;;;26.30;56.20;;;;;;5074336;28;20526;-71
2023/05/30 04:59:16;;;;;;;4.30;3.90;;;26.30;56.20;;;;;;5047698;28;20493;-71
2023/05/30 05:01:45;;;;;;;4.20;3.90;;;26.30;56.20;;;;;;5058599;28;20493;-71
2023/05/30 05:04:15;;;;;;;3.60;3.30;;;26.30;56.20;;;;;;5045831;28;20469;-71
2023/05/30 05:06:43;;;;;;;4.70;4.30;;;26.30;56.20;;;;;;5058006;28;20497;-71
2023/05/30 05:09:13;;;;;;;3.90;3.53;;;26.30;56.20;;;;;;5038802;28;21033;-71
2023/05/30 05:11:41;;;;;;;4.03;3.70;;;26.30;56.20;;;;;;5058900;28;20957;-71
2023/05/30 05:14:09;;;;;;;3.90;3.50;;;26.30;56.20;;;;;;5064885;28;21000;-71
2023/05/30 05:16:37;;;;;;;3.97;3.70;;;26.30;56.20;;;;;;5067050;28;20479;-71
2023/05/30 05:19:06;;;;;;;4.53;4.13;;;26.30;56.20;;;;;;5063395;28;20968;-71
2023/05/30 05:21:36;;;;;;;4.17;3.80;;;26.30;56.20;;;;;;5065692;28;20463;-70
2023/05/30 05:24:05;;;;;;;4.93;4.53;;;26.30;56.20;;;;;;5064470;28;20467;-71
2023/05/30 05:26:33;;;;;;;4.20;3.80;;;26.30;56.20;;;;;;5064259;28;20584;-72
2023/05/30 05:29:02;;;;;;;3.30;3.00;;;26.30;56.30;;;;;;5053853;28;20961;-71
2023/05/30 05:31:32;;;;;;;4.00;3.70;;;26.30;56.20;;;;;;5063111;28;20463;-71
2023/05/30 05:34:01;;;;;;;4.27;3.97;;;26.30;56.20;;;;;;5057251;28;20550;-71
2023/05/30 05:36:29;;;;;;;4.07;3.77;;;26.30;56.20;;;;;;5057604;28;20459;-71
2023/05/30 05:38:59;;;;;;;3.90;3.60;;;26.30;56.20;;;;;;5055889;28;20474;-71
2023/05/30 05:41:27;;;;;;;4.17;3.87;;;26.30;56.20;;;;;;5059839;28;20460;-71
2023/05/30 05:43:56;;;;;;;3.83;3.57;;;26.30;56.20;;;;;;5063322;28;20960;-72
2023/05/30 05:46:24;;;;;;;4.30;3.90;;;26.40;56.20;;;;;;5063793;28;20459;-71
2023/05/30 05:48:54;;;;;;;5.00;4.60;;;26.40;56.20;;;;;;5063629;28;20548;-71
2023/05/30 05:51:22;;;;;;;4.40;4.00;;;26.40;56.20;;;;;;5055111;28;20455;-71
2023/05/30 05:53:50;;;;;;;3.90;3.60;;;26.40;56.20;;;;;;5060941;28;20457;-71
2023/05/30 05:56:21;;;;;;;4.37;4.00;;;26.40;56.20;;;;;;5064174;28;20473;-71
2023/05/30 05:58:49;;;;;;;3.80;3.50;;;26.40;56.20;;;;;;5065516;28;20492;-71
2023/05/30 06:01:18;;;;;;;4.00;3.70;;;26.40;56.20;;;;;;5061939;28;20485;-71
2023/05/30 06:03:46;;;;;;;4.30;4.00;;;26.40;56.20;;;;;;5063439;28;20485;-71
2023/05/30 06:06:15;;;;;;;3.90;3.60;;;26.40;56.20;;;;;;5050010;28;20855;-71
2023/05/30 06:08:47;;;;;;;3.77;3.57;;;26.40;56.20;;;;;;5057489;28;20574;-70
2023/05/30 06:11:15;;;;;;;4.10;3.70;;;26.40;56.20;;;;;;5055301;28;20472;-71
2023/05/30 06:13:45;;;;;;;4.27;3.97;;;26.40;56.30;;;;;;5059757;28;20492;-71
2023/05/30 06:16:13;;;;;;;4.60;4.20;;;26.40;56.20;;;;;;5061845;28;20517;-71
2023/05/30 06:18:42;;;;;;;4.23;3.93;;;26.40;56.20;;;;;;5056063;28;20469;-71
2023/05/30 06:21:10;;;;;;;4.20;3.90;;;26.40;56.20;;;;;;5035986;28;20489;-71
2023/05/30 06:23:39;;;;;;;3.73;3.43;;;26.40;56.20;;;;;;5051969;28;20552;-71
2023/05/30 06:26:08;;;;;;;4.17;3.83;;;26.40;56.20;;;;;;5065580;28;20850;-71
2023/05/30 06:28:38;;;;;;;3.63;3.33;;;26.50;56.20;;;;;;5055270;28;20462;-71
2023/05/30 06:31:08;;;;;;;4.60;3.97;;;26.50;56.20;;;;;;5057786;28;20461;-71
2023/05/30 06:33:36;;;;;;;4.60;4.30;;;26.50;56.20;;;;;;5060762;28;20466;-71
2023/05/30 06:36:05;;;;;;;3.90;3.60;;;26.50;56.20;;;;;;5064763;28;20464;-71
2023/05/30 06:38:33;;;;;;;4.30;4.00;;;26.50;56.20;;;;;;5072233;28;20549;-70
2023/05/30 06:41:02;;;;;;;4.27;3.93;;;26.50;56.20;;;;;;5077414;28;20461;-69
2023/05/30 06:43:30;;;;;;;3.90;3.60;;;26.50;56.30;;;;;;5059966;28;20478;-71
2023/05/30 06:45:58;;;;;;;3.23;3.03;;;26.50;56.50;;;;;;5058249;28;20493;-71
2023/05/30 06:48:28;;;;;;;3.83;3.53;;;26.50;56.50;;;;;;5070134;28;20515;-70
2023/05/30 06:50:56;;;;;;;4.00;3.70;;;26.50;56.50;;;;;;5067488;28;20449;-70
2023/05/30 06:53:25;;;;;;;4.37;3.97;;;26.50;56.50;;;;;;5071343;28;20548;-70
2023/05/30 06:55:53;;;;;;;4.13;3.80;;;26.50;56.60;;;;;;5054899;28;20539;-67
2023/05/30 06:58:22;;;;;;;4.27;3.90;;;26.50;56.70;;;;;;5066486;28;20461;-68
2023/05/30 07:00:50;;;;;;;4.30;3.90;;;26.60;56.90;;;;;;5075431;28;20470;-68
2023/05/30 07:03:18;;;;;;;4.67;4.27;;;26.60;56.90;;;;;;5077503;28;20824;-69
2023/05/30 07:05:48;;;;;;;4.00;3.60;;;26.60;57.00;;;;;;5075808;28;20458;-68
2023/05/30 07:08:16;;;;;;;4.83;4.43;;;26.60;57.10;;;;;;5065106;28;20514;-68
2023/05/30 07:10:44;;;;;;;4.40;4.00;;;26.60;57.10;;;;;;5070875;28;20452;-69
2023/05/30 07:13:12;;;;;;;5.33;4.00;;;26.60;57.20;;;;;;5080289;28;20469;-68
2023/05/30 07:15:41;;;;;;;5.73;4.10;;;26.60;57.30;;;;;;5070853;28;20462;-68
2023/05/30 07:18:09;;;;;;;7.20;4.40;;;26.60;57.30;;;;;;5058096;28;20520;-68
2023/05/30 07:20:37;;;;;;;3.67;3.37;;;26.60;57.40;;;;;;5068950;28;20451;-68
2023/05/30 07:23:07;;;;;;;3.40;3.20;;;26.70;57.30;;;;;;5066537;28;20842;-67
2023/05/30 07:25:35;;;;;;;4.17;3.87;;;26.70;57.30;;;;;;5064468;28;20453;-68
2023/05/30 07:28:03;;;;;;;4.37;4.07;;;26.70;57.30;;;;;;5071321;28;20510;-68
2023/05/30 07:30:35;;;;;;;4.57;4.13;;;26.70;57.30;;;;;;5078534;28;20480;-68
2023/05/30 07:33:03;;;;;;;4.60;4.30;;;26.70;57.30;;;;;;5072613;28;20469;-68
2023/05/30 07:35:31;;;;;;;4.20;3.80;;;26.80;57.30;;;;;;5076694;28;20546;-69
2023/05/30 07:37:59;;;;;;;4.20;3.90;;;26.80;57.30;;;;;;5068693;28;20470;-69
2023/05/30 07:40:29;;;;;;;4.10;3.80;;;26.80;57.30;;;;;;5066087;28;20500;-68
2023/05/30 07:42:57;;;;;;;4.00;3.70;;;26.80;57.30;;;;;;5075102;28;20459;-68
2023/05/30 07:45:25;;;;;;;4.17;3.87;;;26.80;57.30;;;;;;5070168;28;20511;-69
2023/05/30 07:47:54;;;;;;;4.33;3.90;;;26.80;57.30;;;;;;5071106;28;20456;-68
2023/05/30 07:50:22;;;;;;;4.87;4.00;;;26.80;57.30;;;;;;5071333;28;20461;-68
2023/05/30 07:52:50;;;;;;;4.33;4.03;;;26.90;57.30;;;;;;5071405;28;20518;-67
2023/05/30 07:55:18;;;;;;;4.57;4.17;;;26.90;57.30;;;;;;5071213;28;20462;-66
2023/05/30 07:57:48;;;;;;;4.57;4.20;;;26.90;57.20;;;;;;5071947;28;20931;-67
2023/05/30 08:00:17;;;;;;;4.00;3.70;;;26.90;57.00;;;;;;5065597;28;20438;-67
2023/05/30 08:02:45;;;;;;;4.20;3.90;;;26.90;56.80;;;;;;5061409;28;20843;-66
2023/05/30 08:05:14;;;;;;;6.10;4.60;;;26.90;56.70;;;;;;5063709;28;20980;-66
2023/05/30 08:07:43;;;;;;;4.17;3.80;;;26.90;56.50;;;;;;5070978;28;20501;-67
2023/05/30 08:10:11;;;;;;;4.50;4.10;;;26.90;56.50;;;;;;5071071;28;20442;-67
2023/05/30 08:12:39;;;;;;;4.53;4.13;;;26.90;56.40;;;;;;5072102;28;20477;-67
2023/05/30 08:15:10;;;;;;;4.63;4.30;;;26.90;56.40;;;;;;5071090;28;20517;-67
2023/05/30 08:17:40;;;;;;;4.50;3.50;;;26.90;56.50;;;;;;5070904;28;20440;-66
2023/05/30 08:20:12;;;;;;;4.30;4.00;;;26.90;56.50;;;;;;5054042;28;20450;-67
2023/05/30 08:22:40;;;;;;;3.77;3.47;;;26.90;56.50;;;;;;5071061;28;20471;-68
2023/05/30 08:25:10;;;;;;;4.10;3.80;;;26.90;56.60;;;;;;5077439;28;20476;-67
2023/05/30 08:27:38;;;;;;;4.13;3.83;;;26.90;56.60;;;;;;5075522;28;20969;-67
2023/05/30 08:30:10;;;;;;;5.83;4.83;;;27.00;56.70;;;;;;5070417;28;20508;-67
2023/05/30 08:32:40;;;;;;;4.60;4.17;;;27.00;56.70;;;;;;5072357;28;20463;-68
2023/05/30 08:35:09;;;;;;;4.67;4.20;;;27.00;56.70;;;;;;5076381;28;20456;-67
2023/05/30 08:37:37;;;;;;;4.57;4.17;;;27.00;56.80;;;;;;5064802;28;21053;-67
2023/05/30 08:40:07;;;;;;;4.60;4.30;;;27.00;56.80;;;;;;5071204;28;20466;-68
2023/05/30 08:42:35;;;;;;;4.77;3.97;;;27.00;56.70;;;;;;5079935;28;20460;-67
2023/05/30 08:45:06;;;;;;;4.87;4.47;;;27.00;56.80;;;;;;5070352;28;21437;-67
2023/05/30 08:47:36;;;;;;;4.57;4.00;;;27.00;56.80;;;;;;5071214;28;20451;-66
2023/05/30 08:50:07;;;;;;;5.97;4.33;;;27.10;56.90;;;;;;5070963;28;20441;-68
2023/05/30 08:52:36;;;;;;;4.00;3.70;;;27.00;56.90;;;;;;5071363;28;20534;-67
2023/05/30 08:55:10;;;;;;;5.13;4.43;;;27.00;56.90;;;;;;5071245;28;20496;-67
2023/05/30 08:57:45;;;;;;;4.50;4.20;;;27.00;56.90;;;;;;5069505;28;20528;-67
2023/05/30 09:00:15;;;;;;;3.93;3.63;;;27.10;56.90;;;;;;5069985;28;20484;-67
2023/05/30 09:02:46;;;;;;;4.37;3.97;;;27.10;56.90;;;;;;5079565;28;20958;-67
2023/05/30 09:05:16;;;;;;;5.90;3.87;;;27.10;56.90;;;;;;5052293;28;20481;-67
2023/05/30 09:07:45;;;;;;;4.70;4.20;;;27.10;56.90;;;;;;5070255;28;20487;-67
2023/05/30 09:10:15;;;;;;;4.90;4.40;;;27.10;57.00;;;;;;5053236;28;20510;-67
2023/05/30 09:12:44;;;;;;;4.07;3.77;;;27.10;57.00;;;;;;5073251;28;20466;-66
2023/05/30 09:15:12;;;;;;;4.73;4.23;;;27.10;57.00;;;;;;5073791;28;20452;-67
2023/05/30 09:17:40;;;;;;;4.03;3.73;;;27.10;57.00;;;;;;5074866;28;20462;-67
2023/05/30 09:20:15;;;;;;;4.43;4.03;;;27.10;57.00;;;;;;5069893;28;20506;-67
2023/05/30 09:22:45;;;;;;;4.70;4.23;;;27.10;57.00;;;;;;5070836;28;20464;-67
2023/05/30 09:25:15;;;;;;;3.83;3.53;;;27.10;57.00;;;;;;5066015;28;20464;-67
2023/05/30 09:27:47;;;;;;;4.30;4.00;;;27.10;57.00;;;;;;5066682;28;20509;-70
2023/05/30 09:30:16;;;;;;;5.00;4.00;;;27.10;57.00;;;;;;5065213;28;20521;-71
2023/05/30 09:33:00;;;;;;;4.43;4.10;;;27.10;56.80;;;;;;5065062;28;20531;-71
2023/05/30 09:35:30;;;;;;;4.53;4.00;;;27.10;56.70;;;;;;5083070;28;20451;-71
2023/05/30 09:38:04;;;;;;;5.17;4.10;;;27.10;56.70;;;;;;5063015;28;20455;-68
2023/05/30 09:40:32;;;;;;;4.30;3.90;;;27.10;56.70;;;;;;5062554;28;20470;-66
2023/05/30 09:43:01;;;;;;;4.07;3.77;;;27.10;57.00;;;;;;5077384;28;20448;-66
2023/05/30 09:45:29;;;;;;;4.33;3.93;;;27.10;57.20;;;;;;5064341;28;20475;-67
2023/05/30 09:47:57;;;;;;;4.23;3.93;;;27.10;57.10;;;;;;5070620;28;20540;-67
2023/05/30 09:50:26;;;;;;;4.57;4.17;;;27.10;57.10;;;;;;5070866;28;20459;-67
2023/05/30 09:52:56;;;;;;;4.20;3.90;;;27.20;57.10;;;;;;5068008;28;20452;-67
2023/05/30 09:55:26;;;;;;;3.90;3.50;;;27.10;57.10;;;;;;5069946;28;20451;-66
2023/05/30 09:57:54;;;;;;;4.47;4.10;;;27.20;57.10;;;;;;5069462;28;20448;-68
2023/05/30 10:00:25;;;;;;;4.40;4.10;;;27.20;57.10;;;;;;5052916;28;20467;-67
2023/05/30 10:02:55;;;;;;;4.20;3.90;;;27.20;57.10;;;;;;5069855;28;20575;-67
2023/05/30 10:05:25;;;;;;;4.50;4.00;;;27.20;57.10;;;;;;5075421;28;20479;-67
2023/05/30 10:07:57;;;;;;;4.47;4.10;;;27.20;57.10;;;;;;5063915;28;20447;-67
2023/05/30 10:10:25;;;;;;;4.00;3.70;;;27.20;57.10;;;;;;5061621;28;20470;-68
2023/05/30 10:12:55;;;;;;;4.90;4.50;;;27.20;57.10;;;;;;5064556;28;20480;-74
2023/05/30 10:15:25;;;;;;;4.07;3.77;;;27.20;57.10;;;;;;5060575;28;20943;-71
2023/05/30 10:17:57;;;;;;;4.80;4.40;;;27.20;57.00;;;;;;5063339;28;20512;-71
2023/05/30 10:20:28;;;;;;;4.13;3.83;;;27.20;56.90;;;;;;5068677;28;20498;-71
2023/05/30 10:23:00;;;;;;;3.80;3.40;;;27.20;56.90;;;;;;5070165;28;20463;-71
2023/05/30 10:25:30;;;;;;;3.33;3.13;;;27.10;56.80;;;;;;5053769;28;20491;-70
2023/05/30 10:28:03;;;;;;;4.53;4.13;;;27.10;56.80;;;;;;5064668;28;20506;-72
2023/05/30 10:30:33;;;;;;;4.07;3.77;;;27.10;56.80;;;;;;5065470;28;21101;-72
2023/05/30 10:33:06;;;;;;;4.30;3.90;;;27.10;56.90;;;;;;5064277;28;21022;-71
2023/05/30 10:35:35;;;;;;;4.93;4.53;;;27.10;56.90;;;;;;5060980;28;20522;-70
2023/05/30 10:38:07;;;;;;;4.27;3.97;;;27.10;56.90;;;;;;5062070;28;20456;-71
2023/05/30 10:40:44;;;;;;;4.67;4.10;;;27.10;57.00;;;;;;5048927;28;20510;-70
2023/05/30 10:43:25;;;;;;;6.23;4.63;;;27.10;57.00;;;;;;5062663;28;20452;-71
2023/05/30 10:46:11;;;;;;;7.33;6.20;;;27.10;57.00;;;;;;5069030;28;20481;-69
2023/05/30 10:48:46;;;;;;;14.20;7.27;;;27.10;57.00;;;;;;5068675;28;20469;-70
2023/05/30 10:51:15;;;;;;;9.63;7.93;;;27.10;57.00;;;;;;5065074;28;20455;-70
2023/05/30 10:53:46;;;;;;;12.03;8.50;;;27.10;57.00;;;;;;5065642;28;20488;-71
2023/05/30 10:56:39;;;;;;;14.20;11.30;;;27.10;57.10;;;;;;5075664;28;20467;-73
2023/05/30 10:59:15;;;;;;;15.53;10.53;;;27.20;57.10;;;;;;5065649;28;20471;-70
2023/05/30 11:02:00;;;;;;;11.87;10.50;;;27.20;57.10;;;;;;5059057;28;20462;-66
2023/05/30 11:04:34;;;;;;;12.50;9.60;;;27.20;57.20;;;;;;5072060;28;20460;-67
2023/05/30 11:07:11;;;;;;;12.00;10.90;;;27.20;57.40;;;;;;5072692;28;20546;-66
2023/05/30 11:09:42;;;;;;;11.33;10.23;;;27.20;57.50;;;;;;5063823;28;20467;-65
2023/05/30 11:12:22;;;;;;;11.90;9.47;;;27.20;57.50;;;;;;5066601;28;20835;-67
2023/05/30 11:14:56;;;;;;;10.70;8.70;;;27.30;57.70;;;;;;5062168;28;20474;-68
2023/05/30 11:17:30;;;;;;;9.23;8.33;;;27.30;57.80;;;;;;5066257;28;20953;-66
2023/05/30 11:20:07;;;;;;;9.90;8.10;;;27.30;57.90;;;;;;5072245;28;20457;-65
2023/05/30 11:22:38;;;;;;;10.00;8.57;;;27.30;57.90;;;;;;5072000;28;20467;-68
2023/05/30 11:25:23;;;;;;;9.50;8.50;;;27.30;58.00;;;;;;5049691;28;20476;-68
2023/05/30 11:28:17;;;;;;;9.10;7.80;;;27.30;58.00;;;;;;5073156;28;20503;-68
2023/05/30 11:30:47;;;;;;;9.20;8.30;;;27.30;58.10;;;;;;5067997;28;20463;-68
2023/05/30 11:33:17;;;;;;;9.93;8.47;;;27.30;58.10;;;;;;5073654;28;20458;-66
2023/05/30 11:35:50;;;;;;;8.63;7.83;;;27.30;58.20;;;;;;5070964;28;20818;-66
2023/05/30 11:38:22;;;;;;;8.77;7.87;;;27.30;58.20;;;;;;5075690;28;20494;-65
2023/05/30 11:40:52;;;;;;;8.50;7.70;;;27.30;58.20;;;;;;5067313;28;20460;-68
2023/05/30 11:43:23;;;;;;;10.30;8.73;;;27.40;58.30;;;;;;5071584;28;20470;-64
2023/05/30 11:45:56;;;;;;;7.67;6.80;;;27.40;58.10;;;;;;5075242;28;20998;-65
2023/05/30 11:48:25;;;;;;;7.80;7.00;;;27.50;58.10;;;;;;5076451;28;20456;-67
2023/05/30 11:50:55;;;;;;;9.47;7.90;;;27.50;58.00;;;;;;5055162;28;20457;-67
2023/05/30 11:53:23;;;;;;;8.50;7.63;;;27.60;57.90;;;;;;5072480;28;20849;-66
2023/05/30 11:55:53;;;;;;;8.03;7.23;;;27.70;57.80;;;;;;5071032;28;20551;-66
2023/05/30 11:58:22;;;;;;;8.27;7.43;;;27.70;57.80;;;;;;5073236;28;20468;-66
2023/05/30 12:00:51;;;;;;;8.13;7.33;;;27.80;57.70;;;;;;5072797;28;20460;-66
2023/05/30 12:03:19;;;;;;;9.10;8.03;;;27.90;57.50;;;;;;5072260;28;20465;-67
2023/05/30 12:05:48;;;;;;;7.33;6.63;;;28.00;57.30;;;;;;5067589;28;20511;-68
2023/05/30 12:08:17;;;;;;;9.43;7.70;;;28.20;57.00;;;;;;5076622;28;20487;-66
2023/05/30 12:10:46;;;;;;;8.07;7.23;;;28.30;56.70;;;;;;5069979;28;20510;-66
2023/05/30 12:13:20;;;;;;;8.20;7.40;;;28.50;56.40;;;;;;5046191;28;20476;-66
2023/05/30 12:15:49;;;;;;;8.70;7.80;;;28.60;56.20;;;;;;5078503;28;20951;-66
2023/05/30 12:18:18;;;;;;;8.10;7.17;;;28.80;56.00;;;;;;5079185;28;20465;-66
2023/05/30 12:20:48;;;;;;;8.20;7.00;;;29.00;55.80;;;;;;5073107;28;20481;-71
2023/05/30 12:23:24;;;;;;;23.47;20.37;;;29.10;55.50;;;;;;5077524;28;20493;-68
2023/05/30 12:25:54;;;;;;;30.23;25.10;;;29.10;54.70;;;;;;5076096;28;20856;-69
2023/05/30 12:28:24;;;;;;;28.70;24.07;;;29.10;54.50;;;;;;5070690;28;21034;-69
2023/05/30 12:30:53;;;;;;;41.33;28.40;;;29.10;54.40;;;;;;5072827;28;20945;-69
2023/05/30 12:33:23;;;;;;;28.70;25.60;;;29.20;54.20;;;;;;5069567;28;20540;-69
2023/05/30 12:35:53;;;;;;;28.77;25.67;;;29.10;54.40;;;;;;5075573;28;20453;-67
2023/05/30 12:38:22;;;;;;;33.17;26.20;;;29.10;54.50;;;;;;5074352;28;20480;-67
2023/05/30 12:40:51;;;;;;;34.30;25.33;;;29.10;54.80;;;;;;5073018;28;20457;-67
2023/05/30 12:43:28;;;;;;;26.63;23.23;;;29.10;54.70;;;;;;5070752;28;20826;-67
2023/05/30 12:46:00;;;;;;;26.50;23.80;;;29.00;54.80;;;;;;5071920;28;20525;-68
2023/05/30 12:48:31;;;;;;;28.20;22.17;;;28.90;55.00;;;;;;5075545;28;20539;-67
2023/05/30 12:51:01;;;;;;;29.53;25.23;;;28.80;55.50;;;;;;5077030;28;20460;-67
2023/05/30 12:53:30;;;;;;;25.27;22.40;;;28.60;55.90;;;;;;5066057;28;20925;-69
2023/05/30 12:55:58;;;;;;;26.20;23.53;;;28.50;56.20;;;;;;5063752;28;20818;-67
2023/05/30 12:58:28;;;;;;;24.83;22.27;;;28.50;56.60;;;;;;5065636;28;20886;-68
2023/05/30 13:00:56;;;;;;;24.77;22.27;;;28.60;56.70;;;;;;5064952;28;20459;-66